Time;durP1;ratioP1;P1;durP2;ratioP2;P2;SDS_P1;SDS_P2;PMS_P1;PMS_P2;Temp;Humidity;BMP_temperature;BMP_pressure;BME280_temperature;BME280_humidity;BME280_pressure;Samples;Min_cycle;Max_cycle;Signal;HPM_P1;HPM_P2
2022/06/27 00:01:14;;;;;;;10.57;6.07;;;18.50;99.90;;;;;;5052801;28;20041;-75
2022/06/27 00:03:40;;;;;;;10.10;6.30;;;18.50;99.90;;;;;;5041459;28;20080;-75
2022/06/27 00:06:05;;;;;;;8.68;5.57;;;18.50;99.90;;;;;;5031836;28;20041;-74
2022/06/27 00:08:31;;;;;;;9.63;6.85;;;18.50;99.90;;;;;;5042265;28;20076;-76
2022/06/27 00:10:57;;;;;;;11.15;6.03;;;18.50;99.90;;;;;;5036023;28;20088;-74
2022/06/27 00:13:23;;;;;;;10.30;6.82;;;18.50;99.90;;;;;;5032821;28;20064;-74
2022/06/27 00:15:48;;;;;;;9.73;5.50;;;18.40;99.90;;;;;;5033415;28;20060;-75
2022/06/27 00:18:14;;;;;;;8.90;6.00;;;18.30;99.90;;;;;;5052065;28;20514;-74
2022/06/27 00:20:40;;;;;;;8.68;5.50;;;18.30;99.90;;;;;;5040798;28;20041;-75
2022/06/27 00:23:05;;;;;;;9.30;7.13;;;18.30;99.90;;;;;;5029987;28;20491;-75
2022/06/27 00:25:31;;;;;;;10.75;8.02;;;18.40;99.90;;;;;;5043540;28;20127;-76
2022/06/27 00:27:57;;;;;;;11.55;8.45;;;18.40;99.90;;;;;;5037617;28;20042;-75
2022/06/27 00:30:22;;;;;;;11.73;7.43;;;18.40;99.90;;;;;;5049395;28;20041;-75
2022/06/27 00:32:48;;;;;;;9.88;8.07;;;18.40;99.90;;;;;;5031809;28;20045;-74
2022/06/27 00:35:15;;;;;;;10.23;8.32;;;18.40;99.90;;;;;;5036539;28;20037;-74
2022/06/27 00:37:40;;;;;;;9.75;7.50;;;18.30;99.90;;;;;;5051687;28;20502;-76
2022/06/27 00:40:07;;;;;;;10.60;9.18;;;18.30;99.90;;;;;;5035707;28;20049;-74
2022/06/27 00:42:34;;;;;;;12.32;10.52;;;18.30;99.90;;;;;;5038426;28;20075;-75
2022/06/27 00:44:59;;;;;;;10.77;7.72;;;18.30;99.90;;;;;;5038196;28;20053;-74
2022/06/27 00:47:25;;;;;;;9.30;5.20;;;18.30;99.90;;;;;;5032169;28;20127;-74
2022/06/27 00:49:51;;;;;;;10.15;7.97;;;18.30;99.90;;;;;;5044005;28;20048;-74
2022/06/27 00:52:17;;;;;;;10.93;8.38;;;18.30;99.90;;;;;;5050729;28;20049;-74
2022/06/27 00:54:45;;;;;;;12.00;8.95;;;18.30;99.90;;;;;;5042510;28;20080;-75
2022/06/27 00:57:12;;;;;;;17.40;7.65;;;18.30;99.90;;;;;;5013510;28;20091;-74
2022/06/27 00:59:38;;;;;;;13.75;7.05;;;18.30;99.90;;;;;;5051998;28;20053;-75
2022/06/27 01:02:04;;;;;;;13.18;7.63;;;18.20;99.90;;;;;;5037622;28;20140;-75
2022/06/27 01:04:30;;;;;;;14.45;8.38;;;18.30;99.90;;;;;;5045069;28;20049;-75
2022/06/27 01:06:57;;;;;;;12.27;7.72;;;18.30;99.90;;;;;;5035729;28;20041;-74
2022/06/27 01:09:23;;;;;;;10.82;7.90;;;18.30;99.90;;;;;;5032240;28;20103;-74
2022/06/27 01:11:50;;;;;;;12.27;8.10;;;18.20;99.90;;;;;;5041559;28;20063;-74
2022/06/27 01:14:18;;;;;;;14.38;11.50;;;18.20;99.90;;;;;;5035930;28;20114;-75
2022/06/27 01:16:44;;;;;;;13.10;10.98;;;18.20;99.90;;;;;;5042541;28;20052;-74
2022/06/27 01:19:15;;;;;;;11.38;8.27;;;18.10;99.90;;;;;;5031028;28;20053;-74
2022/06/27 01:21:46;;;;;;;11.45;9.85;;;18.10;99.90;;;;;;5031190;28;20045;-75
2022/06/27 01:24:12;;;;;;;27.55;8.85;;;18.10;99.90;;;;;;5046570;28;20056;-76
2022/06/27 01:26:37;;;;;;;19.95;9.15;;;18.10;99.90;;;;;;5031021;28;20033;-78
2022/06/27 01:29:04;;;;;;;18.25;8.93;;;18.10;99.90;;;;;;5023051;28;20076;-74
2022/06/27 01:31:30;;;;;;;13.77;7.28;;;18.10;99.90;;;;;;5035381;28;20552;-74
2022/06/27 01:33:56;;;;;;;13.40;6.75;;;18.00;99.90;;;;;;5032251;28;20120;-74
2022/06/27 01:39:06;;;;;;;10.63;4.68;;;18.10;99.90;;;;;;5050840;28;20154;-74
2022/06/27 01:41:31;;;;;;;13.30;7.60;;;18.10;99.90;;;;;;5036707;28;20488;-74
2022/06/27 01:43:57;;;;;;;20.45;10.82;;;18.20;99.90;;;;;;5043810;28;20064;-75
2022/06/27 01:46:23;;;;;;;13.18;7.07;;;18.20;99.90;;;;;;5030997;28;20392;-75
2022/06/27 01:48:49;;;;;;;17.13;8.88;;;18.20;99.90;;;;;;5035982;28;20045;-76
2022/06/27 01:51:15;;;;;;;16.65;9.18;;;18.20;99.90;;;;;;5050942;28;20190;-74
2022/06/27 01:53:41;;;;;;;15.93;8.38;;;18.20;99.90;;;;;;5050587;28;20438;-74
2022/06/27 01:56:07;;;;;;;25.08;10.55;;;18.20;99.90;;;;;;5044313;28;20049;-74
2022/06/27 01:58:33;;;;;;;18.90;9.85;;;18.20;99.90;;;;;;5023701;28;20050;-72
2022/06/27 02:00:59;;;;;;;14.68;9.52;;;18.20;99.90;;;;;;5043492;28;20403;-72
2022/06/27 02:03:25;;;;;;;14.70;9.65;;;18.00;99.90;;;;;;5031737;28;20061;-73
2022/06/27 02:05:54;;;;;;;12.82;8.68;;;18.00;99.90;;;;;;5034648;28;20033;-71
2022/06/27 02:08:20;;;;;;;11.32;8.10;;;18.00;99.90;;;;;;5046782;28;20048;-71
2022/06/27 02:10:46;;;;;;;19.67;10.88;;;18.00;99.90;;;;;;5054380;28;20053;-72
2022/06/27 02:13:13;;;;;;;13.18;6.47;;;18.00;99.90;;;;;;5053515;28;20049;-72
2022/06/27 02:16:06;;;;;;;14.32;7.95;;;18.00;99.90;;;;;;5055349;28;20040;-71
2022/06/27 02:18:33;;;;;;;11.23;6.45;;;18.00;99.90;;;;;;5054457;28;20080;-71
2022/06/27 02:20:59;;;;;;;13.73;10.00;;;18.00;99.90;;;;;;5050132;28;20515;-72
2022/06/27 02:23:25;;;;;;;13.85;11.68;;;18.00;99.90;;;;;;5045996;28;20061;-72
2022/06/27 02:25:51;;;;;;;10.57;8.23;;;18.10;99.90;;;;;;5038705;28;20052;-72
2022/06/27 02:28:19;;;;;;;13.32;9.65;;;18.10;99.90;;;;;;5036105;28;20114;-72
2022/06/27 02:30:45;;;;;;;11.48;8.45;;;18.10;99.90;;;;;;5055969;28;20149;-71
2022/06/27 02:33:11;;;;;;;11.45;8.57;;;18.10;99.90;;;;;;5052305;28;20044;-71
2022/06/27 02:35:39;;;;;;;15.00;12.20;;;18.20;99.90;;;;;;5034619;28;20129;-71
2022/06/27 02:38:07;;;;;;;23.75;19.15;;;18.20;99.90;;;;;;5050429;28;20061;-71
2022/06/27 02:40:33;;;;;;;14.55;11.02;;;18.10;99.90;;;;;;5041862;28;20415;-71
2022/06/27 02:42:59;;;;;;;16.52;14.15;;;18.10;99.90;;;;;;5040530;28;20046;-72
2022/06/27 02:45:29;;;;;;;15.48;12.68;;;18.00;99.90;;;;;;5034028;28;20565;-72
2022/06/27 02:47:58;;;;;;;16.00;11.68;;;18.00;99.90;;;;;;5035250;28;20059;-72
2022/06/27 02:50:26;;;;;;;16.52;14.75;;;18.00;99.90;;;;;;5046102;28;20104;-71
2022/06/27 02:52:56;;;;;;;17.90;13.10;;;17.90;99.90;;;;;;5035795;28;20483;-71
2022/06/27 02:55:40;;;;;;;23.70;14.75;;;17.90;99.90;;;;;;5049356;28;20085;-71
2022/06/27 02:58:17;;;;;;;27.75;17.52;;;17.80;99.90;;;;;;5041070;28;20503;-71
2022/06/27 03:00:44;;;;;;;22.38;16.38;;;17.80;99.90;;;;;;5035352;28;20040;-70
2022/06/27 03:03:13;;;;;;;17.73;13.32;;;17.80;99.90;;;;;;5033991;28;20132;-70
2022/06/27 03:06:18;;;;;;;18.83;15.52;;;17.80;99.90;;;;;;5033590;28;20050;-70
2022/06/27 03:08:46;;;;;;;17.45;15.45;;;17.90;99.90;;;;;;4973303;28;20047;-70
2022/06/27 03:11:15;;;;;;;16.83;13.75;;;17.80;99.90;;;;;;4938330;29;20132;-69
2022/06/27 03:13:41;;;;;;;16.40;14.40;;;17.80;99.90;;;;;;4990154;28;20461;-69
2022/06/27 03:16:08;;;;;;;17.77;14.88;;;17.80;99.90;;;;;;5033139;28;20499;-69
2022/06/27 03:18:35;;;;;;;18.42;15.40;;;17.80;99.90;;;;;;5046520;28;20052;-69
2022/06/27 03:21:01;;;;;;;15.57;14.00;;;17.80;99.90;;;;;;5054395;28;20064;-69
2022/06/27 03:23:27;;;;;;;15.30;13.05;;;17.70;99.90;;;;;;5040862;28;20049;-70
2022/06/27 03:25:53;;;;;;;15.52;12.35;;;17.70;99.90;;;;;;5031883;28;20042;-70
2022/06/27 03:28:19;;;;;;;19.80;15.10;;;17.70;99.90;;;;;;5042012;28;20060;-71
2022/06/27 03:30:45;;;;;;;19.23;15.25;;;17.60;99.90;;;;;;5033502;28;20053;-71
2022/06/27 03:33:11;;;;;;;15.18;12.98;;;17.40;99.90;;;;;;5033450;28;20499;-69
2022/06/27 03:35:37;;;;;;;13.60;12.10;;;17.40;99.90;;;;;;5039364;28;20107;-69
2022/06/27 03:38:03;;;;;;;10.43;9.27;;;17.50;99.90;;;;;;5033976;28;20141;-69
2022/06/27 03:40:28;;;;;;;11.10;9.32;;;17.40;99.90;;;;;;5041483;28;20086;-69
2022/06/27 03:42:54;;;;;;;11.13;9.88;;;17.40;99.90;;;;;;5040160;28;20171;-70
2022/06/27 03:45:20;;;;;;;13.38;11.95;;;17.30;99.90;;;;;;5037693;28;20492;-70
2022/06/27 03:47:46;;;;;;;10.90;9.80;;;17.20;99.90;;;;;;5042043;28;20120;-71
2022/06/27 03:50:13;;;;;;;9.48;8.38;;;17.10;99.90;;;;;;5033941;28;20045;-70
2022/06/27 03:52:40;;;;;;;14.82;11.40;;;17.10;99.90;;;;;;5042807;28;20048;-70
2022/06/27 03:55:07;;;;;;;11.85;10.02;;;17.10;99.90;;;;;;5038132;28;20107;-70
2022/06/27 03:57:38;;;;;;;17.83;12.65;;;17.00;99.90;;;;;;5044483;28;20441;-69
2022/06/27 04:00:08;;;;;;;22.63;12.50;;;16.90;99.90;;;;;;5046902;28;20047;-70
2022/06/27 04:02:35;;;;;;;9.73;8.73;;;16.80;99.90;;;;;;5045718;28;20060;-68
2022/06/27 04:05:01;;;;;;;10.95;8.48;;;16.70;99.90;;;;;;5032947;28;20044;-69
2022/06/27 04:07:27;;;;;;;11.35;10.18;;;16.70;99.90;;;;;;5034315;28;20124;-70
2022/06/27 04:09:53;;;;;;;10.25;9.20;;;16.80;99.90;;;;;;5021083;28;20136;-69
2022/06/27 04:12:19;;;;;;;12.23;10.05;;;17.00;99.90;;;;;;5040251;28;20057;-69
2022/06/27 04:14:44;;;;;;;8.30;6.85;;;16.90;99.90;;;;;;5052532;28;20507;-69
2022/06/27 04:17:10;;;;;;;7.88;6.13;;;16.80;99.90;;;;;;5048129;28;20128;-69
2022/06/27 04:19:36;;;;;;;8.50;6.85;;;16.80;99.90;;;;;;5033833;28;20447;-69
2022/06/27 04:22:01;;;;;;;7.00;5.53;;;16.80;99.90;;;;;;5035883;28;20116;-70
2022/06/27 04:24:27;;;;;;;9.10;7.55;;;17.00;99.90;;;;;;5044083;28;20045;-69
2022/06/27 04:26:53;;;;;;;10.18;8.80;;;17.00;99.90;;;;;;5047237;28;20471;-70
2022/06/27 04:29:18;;;;;;;11.48;10.27;;;17.00;99.90;;;;;;5021072;28;20053;-70
2022/06/27 04:31:44;;;;;;;7.50;5.93;;;16.90;99.90;;;;;;5040134;28;20049;-72
2022/06/27 04:34:12;;;;;;;14.25;12.55;;;16.90;99.90;;;;;;5051881;28;20052;-71
2022/06/27 04:36:39;;;;;;;11.57;10.35;;;16.90;99.90;;;;;;5037808;28;20391;-70
2022/06/27 04:39:06;;;;;;;14.80;11.38;;;16.90;99.90;;;;;;5048552;28;20151;-70
2022/06/27 04:41:32;;;;;;;9.88;8.82;;;16.80;99.90;;;;;;5045418;28;20052;-71
2022/06/27 04:43:58;;;;;;;13.18;10.65;;;16.80;99.90;;;;;;5038809;28;20487;-72
2022/06/27 04:46:24;;;;;;;11.52;9.77;;;16.80;99.90;;;;;;5039490;28;20060;-72
2022/06/27 04:48:50;;;;;;;11.32;8.80;;;16.70;99.90;;;;;;5037668;28;20049;-71
2022/06/27 04:51:16;;;;;;;7.75;6.50;;;16.60;99.90;;;;;;5041482;28;20049;-71
2022/06/27 04:53:43;;;;;;;8.70;6.90;;;16.50;99.90;;;;;;5063543;28;20084;-70
2022/06/27 04:56:09;;;;;;;9.00;6.65;;;16.50;99.90;;;;;;5051516;28;20052;-71
2022/06/27 04:58:35;;;;;;;7.72;6.47;;;16.50;99.90;;;;;;5036478;28;20411;-71
2022/06/27 05:01:01;;;;;;;8.32;6.90;;;16.50;99.90;;;;;;5045272;28;20124;-71
2022/06/27 05:03:27;;;;;;;10.65;8.75;;;16.50;99.90;;;;;;5032540;28;20050;-71
2022/06/27 05:05:53;;;;;;;9.40;7.60;;;16.50;99.90;;;;;;5046430;28;20396;-70
2022/06/27 05:08:20;;;;;;;9.23;7.38;;;16.60;99.90;;;;;;5032066;28;20053;-71
2022/06/27 05:10:47;;;;;;;6.68;5.13;;;16.40;99.90;;;;;;5039582;28;20064;-71
2022/06/27 05:13:13;;;;;;;7.25;5.70;;;16.30;99.90;;;;;;5035451;28;20054;-71
2022/06/27 05:15:39;;;;;;;6.88;5.20;;;16.20;99.90;;;;;;5037756;28;20095;-70
2022/06/27 05:18:05;;;;;;;8.13;5.32;;;16.20;99.90;;;;;;5050380;28;20060;-70
2022/06/27 05:20:31;;;;;;;6.97;5.53;;;16.20;99.90;;;;;;5033953;28;20459;-72
2022/06/27 05:23:00;;;;;;;7.60;4.70;;;16.30;99.90;;;;;;5040181;28;20117;-72
2022/06/27 05:25:26;;;;;;;6.68;4.72;;;16.30;99.90;;;;;;5035830;28;20417;-71
2022/06/27 05:27:52;;;;;;;9.35;7.50;;;16.30;99.90;;;;;;5030604;28;20400;-71
2022/06/27 05:30:18;;;;;;;7.88;5.25;;;16.30;99.90;;;;;;5015214;28;20049;-72
2022/06/27 05:32:44;;;;;;;8.18;5.35;;;16.40;99.90;;;;;;5031647;28;20052;-71
2022/06/27 05:35:10;;;;;;;7.93;4.00;;;16.40;99.90;;;;;;5037371;28;20551;-71
2022/06/27 05:37:38;;;;;;;6.50;4.30;;;16.40;99.90;;;;;;5031111;28;20124;-71
2022/06/27 05:40:06;;;;;;;6.78;4.90;;;16.50;99.90;;;;;;5032256;28;20052;-71
2022/06/27 05:42:34;;;;;;;6.60;4.50;;;16.50;99.90;;;;;;5036813;28;20052;-71
2022/06/27 05:45:04;;;;;;;6.93;4.78;;;16.50;99.90;;;;;;5039649;28;20049;-71
2022/06/27 05:47:31;;;;;;;6.93;4.85;;;16.50;99.90;;;;;;5040900;28;20041;-71
2022/06/27 05:49:59;;;;;;;7.65;4.82;;;16.50;99.90;;;;;;5056988;28;20056;-70
2022/06/27 05:52:25;;;;;;;6.20;3.92;;;16.40;99.90;;;;;;5050616;28;20057;-70
2022/06/27 05:54:52;;;;;;;7.15;4.38;;;16.40;99.90;;;;;;5037695;28;20057;-71
2022/06/27 05:57:19;;;;;;;5.95;3.83;;;16.50;99.90;;;;;;5036578;28;20067;-71
2022/06/27 05:59:45;;;;;;;7.35;3.90;;;16.60;99.90;;;;;;5049441;28;20462;-71
2022/06/27 06:02:11;;;;;;;6.15;3.92;;;16.60;99.90;;;;;;5039366;28;20085;-72
2022/06/27 06:04:37;;;;;;;5.55;3.70;;;16.70;99.90;;;;;;5037663;28;20053;-71
2022/06/27 06:07:04;;;;;;;6.45;4.00;;;16.70;99.90;;;;;;5038329;28;20052;-71
2022/06/27 06:09:29;;;;;;;6.20;3.38;;;16.70;99.90;;;;;;5038143;28;20060;-72
2022/06/27 06:11:55;;;;;;;6.03;3.63;;;16.70;99.90;;;;;;5050576;28;20053;-71
2022/06/27 06:14:21;;;;;;;5.63;3.80;;;16.80;99.90;;;;;;5036937;28;20050;-71
2022/06/27 06:16:49;;;;;;;5.63;3.97;;;16.80;99.90;;;;;;5051979;28;20166;-71
2022/06/27 06:19:16;;;;;;;5.70;3.55;;;16.90;99.90;;;;;;5053988;28;20061;-71
2022/06/27 06:21:42;;;;;;;6.20;3.88;;;17.00;99.90;;;;;;5037413;28;20393;-71
2022/06/27 06:24:08;;;;;;;4.88;3.30;;;17.00;99.90;;;;;;5043360;28;20498;-71
2022/06/27 06:26:34;;;;;;;5.55;3.33;;;17.00;99.90;;;;;;5057633;28;20053;-71
2022/06/27 06:29:11;;;;;;;6.00;3.10;;;17.10;99.90;;;;;;5037735;28;20057;-71
2022/06/27 06:31:40;;;;;;;5.47;3.50;;;17.10;99.90;;;;;;5037273;28;20056;-71
2022/06/27 06:34:07;;;;;;;7.78;3.25;;;17.10;99.90;;;;;;5051965;28;20041;-71
2022/06/27 06:36:33;;;;;;;8.68;3.83;;;17.00;99.90;;;;;;5037047;28;20056;-70
2022/06/27 06:39:01;;;;;;;8.13;3.70;;;17.10;99.90;;;;;;5062832;28;20075;-70
2022/06/27 06:41:26;;;;;;;8.48;4.00;;;17.00;99.90;;;;;;5042932;28;20056;-71
2022/06/27 06:43:52;;;;;;;6.18;4.45;;;17.00;99.90;;;;;;5057337;28;20041;-71
2022/06/27 06:46:19;;;;;;;6.20;3.60;;;17.00;99.90;;;;;;5045801;28;20550;-71
2022/06/27 06:48:45;;;;;;;7.15;3.67;;;17.10;99.90;;;;;;5055993;28;20496;-71
2022/06/27 06:51:12;;;;;;;7.07;5.07;;;17.20;99.90;;;;;;5044760;28;20068;-70
2022/06/27 06:53:37;;;;;;;7.60;4.90;;;17.20;99.90;;;;;;5051561;28;20056;-70
2022/06/27 06:56:05;;;;;;;5.93;4.10;;;17.20;99.90;;;;;;5055015;28;20392;-71
2022/06/27 06:58:31;;;;;;;6.30;4.80;;;17.30;99.90;;;;;;5052654;28;20128;-70
2022/06/27 07:00:57;;;;;;;5.90;3.92;;;17.40;99.90;;;;;;5054426;28;20053;-71
2022/06/27 07:03:24;;;;;;;5.63;4.10;;;17.30;99.90;;;;;;5036971;28;20490;-71
2022/06/27 07:05:51;;;;;;;6.55;4.80;;;17.40;99.90;;;;;;5036171;28;20053;-71
2022/06/27 07:08:17;;;;;;;7.72;4.57;;;17.40;99.90;;;;;;5059827;28;20049;-71
2022/06/27 07:10:42;;;;;;;6.40;4.43;;;17.40;99.90;;;;;;5033748;28;20401;-70
2022/06/27 07:13:08;;;;;;;8.55;5.68;;;17.40;99.90;;;;;;5035519;28;20050;-70
2022/06/27 07:15:34;;;;;;;7.53;5.15;;;17.50;99.90;;;;;;5036105;28;20037;-73
2022/06/27 07:18:02;;;;;;;8.80;4.75;;;17.40;99.90;;;;;;5036178;28;20056;-70
2022/06/27 07:20:30;;;;;;;7.10;4.78;;;17.40;99.90;;;;;;5018630;28;20053;-71
2022/06/27 07:22:56;;;;;;;7.50;3.90;;;17.40;99.90;;;;;;5042197;28;20063;-71
2022/06/27 07:25:23;;;;;;;6.75;4.35;;;17.40;99.90;;;;;;5037826;28;20132;-71
2022/06/27 07:27:49;;;;;;;6.93;3.70;;;17.40;99.90;;;;;;5032999;28;20463;-70
2022/06/27 07:30:15;;;;;;;6.20;4.03;;;17.40;99.90;;;;;;5033100;28;20058;-70
2022/06/27 07:32:42;;;;;;;6.50;4.47;;;17.50;99.90;;;;;;5033993;28;20090;-71
2022/06/27 07:35:11;;;;;;;7.82;4.55;;;17.50;99.90;;;;;;5046779;28;20397;-71
2022/06/27 07:37:51;;;;;;;6.72;4.05;;;17.50;99.90;;;;;;5052914;28;20057;-71
2022/06/27 07:40:19;;;;;;;7.15;4.10;;;17.50;99.90;;;;;;5047860;28;20395;-70
2022/06/27 07:42:45;;;;;;;6.10;3.63;;;17.50;99.90;;;;;;5060398;28;20059;-70
2022/06/27 07:45:14;;;;;;;5.55;4.07;;;17.50;99.90;;;;;;5032669;28;20455;-70
2022/06/27 07:47:42;;;;;;;8.57;4.00;;;17.60;99.90;;;;;;5026635;28;20052;-70
2022/06/27 07:50:08;;;;;;;7.95;5.70;;;17.70;99.90;;;;;;5050088;28;20096;-70
2022/06/27 07:53:11;;;;;;;6.28;4.03;;;17.70;99.90;;;;;;5032391;28;20100;-71
2022/06/27 07:55:21;;;;;;;6.97;4.45;;;17.70;99.90;;;;;;5035527;28;20045;-70
2022/06/27 07:57:48;;;;;;;6.18;4.45;;;17.90;99.90;;;;;;5026105;28;20088;-70
2022/06/27 08:00:14;;;;;;;6.72;3.55;;;18.10;99.90;;;;;;5033860;28;20477;-70
2022/06/27 08:02:41;;;;;;;6.30;4.07;;;18.20;99.90;;;;;;5045803;28;20049;-71
2022/06/27 08:05:07;;;;;;;6.28;4.00;;;18.40;99.90;;;;;;5046639;28;20049;-70
2022/06/27 08:07:33;;;;;;;6.00;3.50;;;18.40;99.90;;;;;;5046458;28;20060;-70
2022/06/27 08:09:59;;;;;;;6.40;3.50;;;18.50;99.90;;;;;;5035474;28;20046;-70
2022/06/27 08:12:25;;;;;;;5.90;3.58;;;18.60;99.90;;;;;;5052264;28;20080;-71
2022/06/27 08:14:51;;;;;;;6.68;3.50;;;18.60;99.90;;;;;;5054037;28;20123;-71
2022/06/27 08:17:18;;;;;;;6.80;4.00;;;18.60;99.90;;;;;;5046301;28;20095;-70
2022/06/27 08:19:44;;;;;;;7.15;4.00;;;18.60;99.90;;;;;;5032275;28;20045;-70
2022/06/27 08:22:11;;;;;;;6.07;3.92;;;18.60;99.90;;;;;;5032036;28;20045;-70
2022/06/27 08:24:38;;;;;;;6.80;4.30;;;18.50;99.90;;;;;;5032212;28;20045;-69
2022/06/27 08:27:04;;;;;;;6.95;3.80;;;18.60;99.90;;;;;;5034214;28;20095;-71
2022/06/27 08:29:32;;;;;;;7.32;4.30;;;18.70;99.90;;;;;;5043353;28;20539;-70
2022/06/27 08:31:58;;;;;;;6.47;4.20;;;18.70;99.90;;;;;;5031690;28;20061;-72
2022/06/27 08:34:23;;;;;;;5.63;4.03;;;18.80;99.90;;;;;;5019187;28;20053;-73
2022/06/27 08:36:50;;;;;;;6.85;4.65;;;18.90;99.90;;;;;;5037905;28;20035;-73
2022/06/27 08:39:16;;;;;;;6.07;4.10;;;19.00;99.90;;;;;;5051967;28;20053;-72
2022/06/27 08:41:45;;;;;;;5.78;4.38;;;19.00;99.90;;;;;;5037713;28;20501;-71
2022/06/27 08:44:11;;;;;;;6.28;4.50;;;19.10;99.90;;;;;;5051271;28;20044;-72
2022/06/27 08:46:37;;;;;;;7.10;4.32;;;19.00;99.90;;;;;;5051177;28;20106;-72
2022/06/27 08:49:05;;;;;;;7.00;4.35;;;19.00;99.90;;;;;;5031442;28;20432;-71
2022/06/27 08:51:32;;;;;;;6.15;4.50;;;19.00;99.90;;;;;;5024336;28;20091;-71
2022/06/27 08:53:59;;;;;;;6.95;5.18;;;19.00;99.90;;;;;;5015601;28;20041;-72
2022/06/27 08:56:26;;;;;;;6.40;4.85;;;19.00;99.90;;;;;;5032141;28;20060;-71
2022/06/27 08:58:55;;;;;;;8.30;5.55;;;19.00;99.90;;;;;;5030802;28;20044;-71
2022/06/27 09:01:23;;;;;;;8.38;5.20;;;18.90;99.90;;;;;;5026312;28;20045;-72
2022/06/27 09:04:06;;;;;;;6.90;5.38;;;19.00;99.90;;;;;;5038812;28;20057;-71
2022/06/27 09:06:44;;;;;;;6.57;4.70;;;18.90;99.90;;;;;;5041749;28;20116;-72
2022/06/27 09:09:13;;;;;;;7.18;4.60;;;18.90;99.90;;;;;;5032319;28;20044;-72
2022/06/27 09:11:42;;;;;;;7.45;4.95;;;18.80;99.90;;;;;;5031904;28;20500;-72
2022/06/27 09:14:37;;;;;;;7.72;5.30;;;18.90;99.90;;;;;;5042352;28;20049;-72
2022/06/27 09:17:13;;;;;;;5.80;4.50;;;18.90;99.90;;;;;;5048609;28;20044;-71
2022/06/27 09:19:56;;;;;;;7.05;4.95;;;18.80;99.90;;;;;;5039985;28;20128;-71
2022/06/27 09:22:25;;;;;;;7.30;4.60;;;18.90;99.90;;;;;;5031050;28;20083;-72
2022/06/27 09:25:06;;;;;;;7.07;5.10;;;18.80;99.90;;;;;;5042034;28;20122;-71
2022/06/27 09:27:37;;;;;;;6.70;4.65;;;18.80;99.90;;;;;;5036704;28;20501;-71
2022/06/27 09:30:18;;;;;;;6.40;4.90;;;18.80;99.90;;;;;;5039297;28;20566;-73
2022/06/27 09:32:44;;;;;;;7.57;5.85;;;18.80;99.90;;;;;;5037294;28;20047;-72
2022/06/27 09:35:34;;;;;;;7.05;5.63;;;18.80;99.90;;;;;;5044231;28;20041;-72
2022/06/27 09:38:02;;;;;;;7.60;5.47;;;18.70;99.90;;;;;;5050936;28;20056;-72
2022/06/27 09:40:30;;;;;;;9.05;5.85;;;18.70;99.90;;;;;;5031398;28;20407;-72
2022/06/27 09:42:56;;;;;;;7.15;5.60;;;18.70;99.90;;;;;;5043236;28;20060;-73
2022/06/27 09:45:24;;;;;;;6.78;5.80;;;18.70;99.90;;;;;;5031558;28;20060;-72
2022/06/27 09:48:10;;;;;;;7.90;6.18;;;18.70;99.90;;;;;;5030989;28;20485;-72
2022/06/27 09:50:40;;;;;;;7.38;6.13;;;18.70;99.90;;;;;;5033899;28;20131;-71
2022/06/27 09:53:06;;;;;;;7.03;5.57;;;18.70;99.90;;;;;;5030931;28;20091;-72
2022/06/27 09:55:32;;;;;;;6.97;5.85;;;18.70;99.90;;;;;;5035508;28;20147;-72
2022/06/27 09:58:00;;;;;;;8.00;5.90;;;18.80;99.90;;;;;;5051451;28;20377;-72
2022/06/27 10:00:26;;;;;;;7.43;5.50;;;18.90;99.90;;;;;;5031376;28;20061;-71
2022/06/27 10:02:53;;;;;;;7.47;5.90;;;18.90;99.90;;;;;;5030264;28;20133;-73
2022/06/27 10:05:19;;;;;;;7.55;5.80;;;18.90;99.90;;;;;;5026323;28;20060;-71
2022/06/27 10:08:05;;;;;;;7.03;5.50;;;18.90;99.90;;;;;;5038233;28;20511;-72
2022/06/27 10:10:53;;;;;;;6.97;5.45;;;18.80;99.90;;;;;;5031060;28;20435;-72
2022/06/27 10:13:20;;;;;;;8.93;5.72;;;18.80;99.90;;;;;;5029728;28;20103;-72
2022/06/27 10:15:49;;;;;;;9.40;6.50;;;19.00;99.90;;;;;;5031961;28;20081;-72
2022/06/27 10:18:15;;;;;;;7.30;6.10;;;18.90;99.90;;;;;;5030383;28;20135;-72
2022/06/27 10:20:47;;;;;;;8.30;6.63;;;19.00;99.90;;;;;;5036595;28;20452;-72
2022/06/27 10:23:17;;;;;;;7.55;4.57;;;19.00;99.90;;;;;;5030961;28;20477;-72
2022/06/27 10:25:47;;;;;;;6.47;5.05;;;19.10;99.90;;;;;;5035861;28;20053;-72
2022/06/27 10:28:13;;;;;;;8.70;6.28;;;19.20;99.90;;;;;;5041117;28;20041;-71
2022/06/27 10:30:51;;;;;;;7.55;5.85;;;19.20;99.90;;;;;;5038343;28;20056;-72
2022/06/27 10:33:26;;;;;;;7.40;6.53;;;19.20;99.90;;;;;;5054099;28;20554;-72
2022/06/27 10:38:26;;;;;;;8.50;5.55;;;19.20;99.90;;;;;;5040607;28;20464;-72
2022/06/27 10:40:53;;;;;;;7.10;5.53;;;19.20;99.90;;;;;;5044336;28;20057;-73
2022/06/27 10:43:40;;;;;;;9.07;6.30;;;19.20;99.90;;;;;;5016511;28;20393;-73
2022/06/27 10:46:13;;;;;;;8.10;6.45;;;19.30;99.90;;;;;;5033890;28;20546;-73
2022/06/27 10:48:42;;;;;;;7.05;5.25;;;19.30;99.90;;;;;;5051561;28;20052;-72
2022/06/27 10:51:31;;;;;;;8.45;6.03;;;19.40;99.90;;;;;;5043479;28;20055;-73
2022/06/27 10:54:06;;;;;;;8.02;5.50;;;19.40;99.90;;;;;;5031151;28;20053;-73
2022/06/27 10:56:37;;;;;;;8.57;5.82;;;19.40;99.90;;;;;;5033873;28;20049;-73
2022/06/27 10:59:27;;;;;;;10.05;5.97;;;19.30;99.90;;;;;;5038023;28;20048;-72
2022/06/27 11:02:00;;;;;;;7.40;5.28;;;19.30;99.90;;;;;;5040055;28;20128;-73
2022/06/27 11:04:36;;;;;;;7.13;5.18;;;19.20;99.90;;;;;;5026675;28;20099;-72
2022/06/27 11:07:09;;;;;;;6.68;4.70;;;19.30;99.90;;;;;;5033744;28;20058;-73
2022/06/27 11:09:38;;;;;;;6.10;4.60;;;19.40;99.90;;;;;;5034283;28;20049;-73
2022/06/27 11:12:06;;;;;;;6.88;4.60;;;19.40;99.90;;;;;;5046611;28;20080;-76
2022/06/27 11:14:57;;;;;;;6.57;4.68;;;19.50;99.90;;;;;;5045027;28;20099;-72
2022/06/27 11:17:44;;;;;;;6.50;4.30;;;19.50;99.90;;;;;;5046709;28;20050;-73
2022/06/27 11:20:25;;;;;;;6.00;4.30;;;19.60;99.90;;;;;;5034313;28;20099;-73
2022/06/27 11:22:56;;;;;;;6.75;4.50;;;19.60;99.90;;;;;;5043184;28;20131;-73
2022/06/27 11:25:27;;;;;;;5.75;4.20;;;19.80;99.90;;;;;;5036635;28;20119;-73
2022/06/27 11:33:35;;;;;;;6.13;3.60;;;19.90;99.90;;;;;;5039493;28;20061;-72
2022/06/27 11:36:02;;;;;;;5.47;3.80;;;20.00;99.90;;;;;;5033632;28;20045;-73
2022/06/27 11:38:30;;;;;;;5.63;3.55;;;19.90;99.90;;;;;;5016662;28;20053;-73
2022/06/27 11:41:14;;;;;;;5.45;3.65;;;19.90;99.90;;;;;;5043778;28;20124;-73
2022/06/27 11:44:01;;;;;;;5.70;4.07;;;19.90;99.90;;;;;;5046619;28;20481;-73
2022/06/27 11:46:45;;;;;;;6.95;3.97;;;20.00;99.90;;;;;;5046611;28;20124;-78
2022/06/27 11:49:27;;;;;;;6.10;4.25;;;20.10;99.90;;;;;;5044505;28;20477;-72
2022/06/27 11:51:58;;;;;;;5.80;3.42;;;20.20;99.90;;;;;;5035420;28;21496;-73
2022/06/27 11:54:24;;;;;;;5.47;3.15;;;20.30;99.90;;;;;;5043749;28;20150;-74
2022/06/27 11:56:54;;;;;;;5.00;3.00;;;20.20;99.90;;;;;;5049246;28;20068;-72
2022/06/27 11:59:20;;;;;;;5.35;2.70;;;20.10;99.90;;;;;;5051689;28;20115;-74
2022/06/27 12:02:01;;;;;;;5.30;2.90;;;20.00;99.90;;;;;;5038468;28;20105;-73
2022/06/27 12:04:27;;;;;;;4.78;2.90;;;19.90;99.90;;;;;;5057877;28;20109;-74
2022/06/27 12:06:58;;;;;;;5.53;3.10;;;19.90;99.90;;;;;;5051946;28;20049;-75
2022/06/27 12:09:28;;;;;;;5.00;2.97;;;19.90;99.90;;;;;;5052978;28;20064;-74
2022/06/27 12:12:01;;;;;;;4.88;3.00;;;20.00;99.90;;;;;;5034399;28;20053;-74
2022/06/27 12:14:29;;;;;;;6.47;3.33;;;20.10;99.90;;;;;;5031684;28;20057;-74
2022/06/27 12:16:57;;;;;;;6.32;3.10;;;20.10;99.90;;;;;;5032463;28;20053;-74
2022/06/27 12:19:24;;;;;;;5.45;3.08;;;20.10;99.90;;;;;;5032220;28;20480;-74
2022/06/27 12:21:50;;;;;;;6.05;3.42;;;20.10;99.90;;;;;;5034817;28;20476;-74
2022/06/27 12:24:17;;;;;;;5.97;3.20;;;20.10;99.90;;;;;;5044686;28;20396;-74
2022/06/27 12:26:43;;;;;;;5.80;3.20;;;20.10;99.90;;;;;;5032246;28;20128;-74
2022/06/27 12:29:09;;;;;;;5.95;3.40;;;20.00;99.90;;;;;;5037320;28;20112;-74
2022/06/27 12:31:36;;;;;;;5.88;3.33;;;20.00;99.90;;;;;;5041659;28;20056;-73
2022/06/27 12:34:03;;;;;;;5.57;3.35;;;20.00;99.90;;;;;;5015639;28;20056;-73
2022/06/27 12:36:31;;;;;;;6.13;3.67;;;20.00;99.90;;;;;;5030155;28;20045;-74
2022/06/27 12:38:58;;;;;;;5.43;3.50;;;20.00;99.90;;;;;;5015794;28;20499;-74
2022/06/27 12:41:23;;;;;;;5.63;3.30;;;20.00;99.90;;;;;;5045339;28;20044;-73
2022/06/27 12:43:50;;;;;;;5.28;3.50;;;20.00;99.90;;;;;;5032116;28;20041;-74
2022/06/27 12:46:17;;;;;;;5.32;3.30;;;19.90;99.90;;;;;;5032241;28;20057;-74
2022/06/27 12:48:43;;;;;;;4.88;3.20;;;19.90;99.90;;;;;;5031117;28;20049;-75
2022/06/27 12:51:10;;;;;;;5.90;3.33;;;19.90;99.90;;;;;;5031435;28;20089;-74
2022/06/27 12:53:36;;;;;;;5.25;3.28;;;19.90;99.90;;;;;;5049429;28;20067;-74
2022/06/27 12:56:03;;;;;;;6.90;3.60;;;20.00;99.90;;;;;;5026324;28;20049;-73
2022/06/27 12:58:30;;;;;;;6.45;3.53;;;20.00;99.90;;;;;;5031909;28;20127;-73
2022/06/27 13:00:56;;;;;;;5.55;3.60;;;20.00;99.90;;;;;;5031546;28;20049;-73